sensor_id;sensor_type;location;lat;lon;timestamp;pressure;altitude;pressure_sealevel;temperature;humidity
10466;BME280;5280;42.600;23.556;2022-09-17T00:01:38;92615.38;;;18.34;94.18
10466;BME280;5280;42.600;23.556;2022-09-17T00:04:05;92615.13;;;18.29;93.63
10466;BME280;5280;42.600;23.556;2022-09-17T00:06:34;92621.50;;;18.28;94.33
10466;BME280;5280;42.600;23.556;2022-09-17T00:09:01;92622.13;;;18.30;94.40
10466;BME280;5280;42.600;23.556;2022-09-17T00:11:32;92615.06;;;18.22;94.65
10466;BME280;5280;42.600;23.556;2022-09-17T00:14:01;92574.56;;;17.96;95.64
10466;BME280;5280;42.600;23.556;2022-09-17T00:16:30;92584.53;;;17.87;96.75
10466;BME280;5280;42.600;23.556;2022-09-17T00:18:58;92594.41;;;18.01;96.90
10466;BME280;5280;42.600;23.556;2022-09-17T00:21:25;92614.13;;;18.00;98.21
10466;BME280;5280;42.600;23.556;2022-09-17T00:23:53;92551.72;;;17.64;98.92
10466;BME280;5280;42.600;23.556;2022-09-17T00:26:20;92625.38;;;17.96;100.00
10466;BME280;5280;42.600;23.556;2022-09-17T00:28:50;92584.53;;;17.87;100.00
10466;BME280;5280;42.600;23.556;2022-09-17T00:31:17;92541.75;;;17.58;100.00
10466;BME280;5280;42.600;23.556;2022-09-17T00:33:44;92582.16;;;17.78;100.00
10466;BME280;5280;42.600;23.556;2022-09-17T00:36:11;92548.09;;;17.57;100.00
10466;BME280;5280;42.600;23.556;2022-09-17T00:38:37;92567.47;;;17.74;100.00
10466;BME280;5280;42.600;23.556;2022-09-17T00:41:05;92579.09;;;17.66;100.00
10466;BME280;5280;42.600;23.556;2022-09-17T00:43:39;92574.59;;;17.67;100.00
10466;BME280;5280;42.600;23.556;2022-09-17T00:46:19;92565.00;;;17.72;100.00
10466;BME280;5280;42.600;23.556;2022-09-17T00:48:49;92571.47;;;17.78;100.00
10466;BME280;5280;42.600;23.556;2022-09-17T00:51:20;92582.97;;;17.78;100.00
10466;BME280;5280;42.600;23.556;2022-09-17T00:53:50;92587.22;;;17.87;100.00
10466;BME280;5280;42.600;23.556;2022-09-17T00:56:21;92575.88;;;17.85;100.00
10466;BME280;5280;42.600;23.556;2022-09-17T00:58:49;92592.63;;;18.08;97.48
10466;BME280;5280;42.600;23.556;2022-09-17T01:01:18;92590.78;;;18.24;98.51
10466;BME280;5280;42.600;23.556;2022-09-17T01:03:46;92585.69;;;18.29;98.72
10466;BME280;5280;42.600;23.556;2022-09-17T01:06:18;92582.44;;;18.33;96.86
10466;BME280;5280;42.600;23.556;2022-09-17T01:09:05;92546.44;;;18.15;89.25
10466;BME280;5280;42.600;23.556;2022-09-17T01:14:37;92587.03;;;18.90;83.15
10466;BME280;5280;42.600;23.556;2022-09-17T01:17:14;92577.25;;;18.97;81.38
10466;BME280;5280;42.600;23.556;2022-09-17T01:20:17;92568.94;;;19.13;81.78
10466;BME280;5280;42.600;23.556;2022-09-17T01:22:59;92541.81;;;19.23;77.93
10466;BME280;5280;42.600;23.556;2022-09-17T01:25:36;92539.63;;;19.33;77.52
10466;BME280;5280;42.600;23.556;2022-09-17T01:28:31;92566.16;;;19.49;75.97
10466;BME280;5280;42.600;23.556;2022-09-17T01:31:21;92579.69;;;19.62;75.23
10466;BME280;5280;42.600;23.556;2022-09-17T01:33:56;92563.19;;;19.65;78.03
10466;BME280;5280;42.600;23.556;2022-09-17T01:36:42;92559.84;;;19.57;76.03
10466;BME280;5280;42.600;23.556;2022-09-17T01:39:18;92586.75;;;20.04;65.96
10466;BME280;5280;42.600;23.556;2022-09-17T01:41:55;92557.75;;;20.21;71.38
10466;BME280;5280;42.600;23.556;2022-09-17T01:44:28;92565.72;;;20.42;69.46
10466;BME280;5280;42.600;23.556;2022-09-17T01:47:05;92595.78;;;20.66;63.06
10466;BME280;5280;42.600;23.556;2022-09-17T01:49:36;92587.56;;;20.80;64.40
10466;BME280;5280;42.600;23.556;2022-09-17T01:52:05;92591.31;;;20.99;62.33
10466;BME280;5280;42.600;23.556;2022-09-17T01:54:37;92599.88;;;21.16;59.98
10466;BME280;5280;42.600;23.556;2022-09-17T01:57:09;92527.84;;;20.85;72.06
10466;BME280;5280;42.600;23.556;2022-09-17T01:59:42;92551.44;;;21.02;72.26
10466;BME280;5280;42.600;23.556;2022-09-17T02:02:14;92578.56;;;21.14;72.67
10466;BME280;5280;42.600;23.556;2022-09-17T02:04:46;92519.16;;;20.76;72.82
10466;BME280;5280;42.600;23.556;2022-09-17T02:07:18;92513.56;;;20.78;71.50
10466;BME280;5280;42.600;23.556;2022-09-17T02:09:50;92508.41;;;20.83;72.07
10466;BME280;5280;42.600;23.556;2022-09-17T02:12:29;92486.13;;;20.76;67.57
10466;BME280;5280;42.600;23.556;2022-09-17T02:15:01;92474.75;;;20.67;65.16
10466;BME280;5280;42.600;23.556;2022-09-17T02:17:34;92453.06;;;20.75;62.99
10466;BME280;5280;42.600;23.556;2022-09-17T02:20:03;92435.69;;;20.78;62.00
10466;BME280;5280;42.600;23.556;2022-09-17T02:22:36;92492.34;;;21.09;61.06
10466;BME280;5280;42.600;23.556;2022-09-17T02:25:09;92519.22;;;21.22;60.73
10466;BME280;5280;42.600;23.556;2022-09-17T02:27:47;92512.22;;;21.34;58.93
10466;BME280;5280;42.600;23.556;2022-09-17T02:30:17;92464.66;;;21.35;59.24
10466;BME280;5280;42.600;23.556;2022-09-17T02:32:47;92486.16;;;21.55;60.84
10466;BME280;5280;42.600;23.556;2022-09-17T02:35:14;92480.56;;;21.50;59.96
10466;BME280;5280;42.600;23.556;2022-09-17T02:37:41;92465.28;;;21.57;59.15
10466;BME280;5280;42.600;23.556;2022-09-17T02:40:09;92445.56;;;21.63;59.00
10466;BME280;5280;42.600;23.556;2022-09-17T02:42:52;92441.66;;;21.65;58.30
10466;BME280;5280;42.600;23.556;2022-09-17T02:45:32;92394.78;;;21.41;64.25
10466;BME280;5280;42.600;23.556;2022-09-17T02:48:11;92463.00;;;21.27;66.38
10466;BME280;5280;42.600;23.556;2022-09-17T02:50:57;92433.22;;;20.83;69.37
10466;BME280;5280;42.600;23.556;2022-09-17T02:53:36;92388.03;;;19.99;72.70
10466;BME280;5280;42.600;23.556;2022-09-17T02:56:11;92399.19;;;20.03;69.01
10466;BME280;5280;42.600;23.556;2022-09-17T02:58:45;92395.13;;;20.27;67.00
10466;BME280;5280;42.600;23.556;2022-09-17T03:01:18;92431.72;;;20.34;70.96
10466;BME280;5280;42.600;23.556;2022-09-17T03:03:50;92433.03;;;20.04;72.39
10466;BME280;5280;42.600;23.556;2022-09-17T03:06:18;92457.50;;;19.81;74.05
10466;BME280;5280;42.600;23.556;2022-09-17T03:08:45;92407.06;;;19.22;75.63
10466;BME280;5280;42.600;23.556;2022-09-17T03:11:13;92461.78;;;19.41;76.71
10466;BME280;5280;42.600;23.556;2022-09-17T03:13:40;92459.47;;;19.38;77.08
10466;BME280;5280;42.600;23.556;2022-09-17T03:16:08;92477.56;;;19.29;77.94
10466;BME280;5280;42.600;23.556;2022-09-17T03:18:35;92473.38;;;19.20;78.25
10466;BME280;5280;42.600;23.556;2022-09-17T03:21:04;92408.75;;;18.74;78.95
10466;BME280;5280;42.600;23.556;2022-09-17T03:23:31;92435.47;;;19.17;78.70
10466;BME280;5280;42.600;23.556;2022-09-17T03:25:58;92420.59;;;19.14;79.15
10466;BME280;5280;42.600;23.556;2022-09-17T03:28:27;92403.06;;;19.12;79.50
10466;BME280;5280;42.600;23.556;2022-09-17T03:30:55;92355.69;;;18.78;79.89
10466;BME280;5280;42.600;23.556;2022-09-17T03:33:21;92402.44;;;19.10;80.00
10466;BME280;5280;42.600;23.556;2022-09-17T03:35:48;92409.44;;;19.11;77.84
10466;BME280;5280;42.600;23.556;2022-09-17T03:38:20;92442.03;;;19.14;79.23
10466;BME280;5280;42.600;23.556;2022-09-17T03:40:56;92439.56;;;19.19;78.73
10466;BME280;5280;42.600;23.556;2022-09-17T03:43:27;92447.44;;;19.21;78.70
10466;BME280;5280;42.600;23.556;2022-09-17T03:45:54;92399.78;;;18.82;79.10
10466;BME280;5280;42.600;23.556;2022-09-17T03:48:21;92471.28;;;19.16;79.23
10466;BME280;5280;42.600;23.556;2022-09-17T03:50:49;92398.13;;;18.81;78.96
10466;BME280;5280;42.600;23.556;2022-09-17T03:53:17;92412.22;;;18.96;79.31
10466;BME280;5280;42.600;23.556;2022-09-17T03:55:45;92430.22;;;19.09;79.65
10466;BME280;5280;42.600;23.556;2022-09-17T03:58:18;92417.44;;;19.04;80.04
10466;BME280;5280;42.600;23.556;2022-09-17T04:00:46;92334.63;;;18.47;81.23
10466;BME280;5280;42.600;23.556;2022-09-17T04:03:18;92426.06;;;19.00;80.88
10466;BME280;5280;42.600;23.556;2022-09-17T04:05:46;92399.63;;;18.90;81.58
10466;BME280;5280;42.600;23.556;2022-09-17T04:08:13;92380.34;;;18.73;81.83
10466;BME280;5280;42.600;23.556;2022-09-17T04:10:42;92402.47;;;18.88;81.98
10466;BME280;5280;42.600;23.556;2022-09-17T04:13:10;92432.06;;;19.02;82.85
10466;BME280;5280;42.600;23.556;2022-09-17T04:15:38;92427.13;;;19.05;83.23
10466;BME280;5280;42.600;23.556;2022-09-17T04:18:05;92429.31;;;18.95;81.88
10466;BME280;5280;42.600;23.556;2022-09-17T04:20:32;92469.47;;;18.95;82.19
10466;BME280;5280;42.600;23.556;2022-09-17T04:22:59;92471.97;;;18.97;82.44
10466;BME280;5280;42.600;23.556;2022-09-17T04:25:26;92419.13;;;18.56;82.06
10466;BME280;5280;42.600;23.556;2022-09-17T04:27:55;92493.34;;;18.90;82.67
10466;BME280;5280;42.600;23.556;2022-09-17T04:30:22;92475.06;;;18.72;83.34
10466;BME280;5280;42.600;23.556;2022-09-17T04:32:49;92504.81;;;18.84;83.13
10466;BME280;5280;42.600;23.556;2022-09-17T04:35:16;92427.63;;;18.24;83.63
10466;BME280;5280;42.600;23.556;2022-09-17T04:37:51;92421.00;;;18.20;84.28
10466;BME280;5280;42.600;23.556;2022-09-17T04:40:21;92510.88;;;18.71;84.55
10466;BME280;5280;42.600;23.556;2022-09-17T04:42:51;92468.16;;;18.42;85.27
10466;BME280;5280;42.600;23.556;2022-09-17T04:45:20;92555.06;;;18.82;85.58
10466;BME280;5280;42.600;23.556;2022-09-17T04:47:48;92529.19;;;18.68;85.47
10466;BME280;5280;42.600;23.556;2022-09-17T04:50:16;92527.00;;;18.57;85.23
10466;BME280;5280;42.600;23.556;2022-09-17T04:52:44;92512.16;;;18.39;85.06
10466;BME280;5280;42.600;23.556;2022-09-17T04:55:12;92526.44;;;18.46;85.57
10466;BME280;5280;42.600;23.556;2022-09-17T04:57:45;92574.84;;;18.66;86.68
10466;BME280;5280;42.600;23.556;2022-09-17T05:00:13;92581.94;;;18.74;88.63
10466;BME280;5280;42.600;23.556;2022-09-17T05:02:45;92566.56;;;18.46;89.03
10466;BME280;5280;42.600;23.556;2022-09-17T05:05:12;92562.16;;;18.39;89.99
10466;BME280;5280;42.600;23.556;2022-09-17T05:07:40;92642.09;;;18.92;90.54
10466;BME280;5280;42.600;23.556;2022-09-17T05:10:09;92641.16;;;18.85;92.15
10466;BME280;5280;42.600;23.556;2022-09-17T05:12:36;92640.03;;;18.95;92.67
10466;BME280;5280;42.600;23.556;2022-09-17T05:15:04;92636.34;;;18.96;93.95
10466;BME280;5280;42.600;23.556;2022-09-17T05:17:32;92625.81;;;18.94;97.53
10466;BME280;5280;42.600;23.556;2022-09-17T05:20:00;92573.97;;;18.80;98.41
10466;BME280;5280;42.600;23.556;2022-09-17T05:22:27;92566.59;;;18.82;100.00
10466;BME280;5280;42.600;23.556;2022-09-17T05:24:54;92568.44;;;18.82;100.00
10466;BME280;5280;42.600;23.556;2022-09-17T05:27:21;92584.38;;;18.90;100.00
10466;BME280;5280;42.600;23.556;2022-09-17T05:29:48;92589.16;;;18.95;100.00
10466;BME280;5280;42.600;23.556;2022-09-17T05:32:15;92569.84;;;18.78;100.00
10466;BME280;5280;42.600;23.556;2022-09-17T05:34:42;92580.53;;;18.99;100.00
10466;BME280;5280;42.600;23.556;2022-09-17T05:37:11;92526.78;;;18.58;100.00
10466;BME280;5280;42.600;23.556;2022-09-17T05:39:38;92589.97;;;18.95;100.00
10466;BME280;5280;42.600;23.556;2022-09-17T05:42:05;92574.34;;;18.99;100.00
10466;BME280;5280;42.600;23.556;2022-09-17T05:44:33;92553.47;;;18.87;100.00
10466;BME280;5280;42.600;23.556;2022-09-17T05:47:00;92495.41;;;18.52;100.00
10466;BME280;5280;42.600;23.556;2022-09-17T05:49:27;92566.22;;;19.07;100.00
10466;BME280;5280;42.600;23.556;2022-09-17T05:51:54;92551.16;;;19.06;100.00
10466;BME280;5280;42.600;23.556;2022-09-17T05:54:22;92534.19;;;18.99;100.00
10466;BME280;5280;42.600;23.556;2022-09-17T05:56:54;92465.03;;;18.60;100.00
10466;BME280;5280;42.600;23.556;2022-09-17T05:59:21;92571.03;;;19.18;100.00
10466;BME280;5280;42.600;23.556;2022-09-17T06:01:48;92565.41;;;19.13;100.00
10466;BME280;5280;42.600;23.556;2022-09-17T06:04:15;92572.06;;;18.96;100.00
10466;BME280;5280;42.600;23.556;2022-09-17T06:06:43;92607.22;;;19.07;100.00
10466;BME280;5280;42.600;23.556;2022-09-17T06:09:10;92557.84;;;18.74;100.00
10466;BME280;5280;42.600;23.556;2022-09-17T06:11:40;92588.25;;;19.09;100.00
10466;BME280;5280;42.600;23.556;2022-09-17T06:14:08;92571.63;;;18.92;100.00
10466;BME280;5280;42.600;23.556;2022-09-17T06:16:35;92614.47;;;19.13;100.00
10466;BME280;5280;42.600;23.556;2022-09-17T06:19:02;92520.88;;;18.63;100.00
10466;BME280;5280;42.600;23.556;2022-09-17T06:21:31;92626.25;;;19.19;100.00
10466;BME280;5280;42.600;23.556;2022-09-17T06:23:58;92560.09;;;18.91;100.00
10466;BME280;5280;42.600;23.556;2022-09-17T06:26:26;92595.97;;;19.18;100.00
10466;BME280;5280;42.600;23.556;2022-09-17T06:28:54;92585.81;;;19.14;100.00
10466;BME280;5280;42.600;23.556;2022-09-17T06:31:21;92520.09;;;18.69;100.00
10466;BME280;5280;42.600;23.556;2022-09-17T06:33:48;92538.53;;;18.78;100.00
10466;BME280;5280;42.600;23.556;2022-09-17T06:36:15;92619.31;;;19.24;100.00
10466;BME280;5280;42.600;23.556;2022-09-17T06:38:42;92596.03;;;19.04;100.00
10466;BME280;5280;42.600;23.556;2022-09-17T06:41:09;92638.91;;;19.25;100.00
10466;BME280;5280;42.600;23.556;2022-09-17T06:43:36;92641.97;;;19.22;100.00
10466;BME280;5280;42.600;23.556;2022-09-17T06:46:05;92654.31;;;19.23;100.00
10466;BME280;5280;42.600;23.556;2022-09-17T06:48:34;92667.97;;;19.28;100.00
10466;BME280;5280;42.600;23.556;2022-09-17T06:51:02;92671.97;;;19.32;100.00
10466;BME280;5280;42.600;23.556;2022-09-17T06:53:32;92678.34;;;19.31;100.00
10466;BME280;5280;42.600;23.556;2022-09-17T06:56:01;92671.44;;;19.22;100.00
10466;BME280;5280;42.600;23.556;2022-09-17T06:58:29;92598.28;;;18.64;100.00
10466;BME280;5280;42.600;23.556;2022-09-17T07:00:58;92611.53;;;18.87;100.00
10466;BME280;5280;42.600;23.556;2022-09-17T07:03:30;92614.66;;;19.12;100.00
10466;BME280;5280;42.600;23.556;2022-09-17T07:05:58;92577.75;;;18.86;100.00
10466;BME280;5280;42.600;23.556;2022-09-17T07:08:25;92526.94;;;18.71;100.00
10466;BME280;5280;42.600;23.556;2022-09-17T07:10:54;92613.25;;;19.37;100.00
10466;BME280;5280;42.600;23.556;2022-09-17T07:13:21;92576.78;;;19.15;100.00
10466;BME280;5280;42.600;23.556;2022-09-17T07:15:52;92555.59;;;19.20;100.00
10466;BME280;5280;42.600;23.556;2022-09-17T07:18:19;92507.63;;;18.97;100.00
10466;BME280;5280;42.600;23.556;2022-09-17T07:20:53;92534.06;;;19.34;100.00
10466;BME280;5280;42.600;23.556;2022-09-17T07:23:21;92560.75;;;19.70;100.00
10466;BME280;5280;42.600;23.556;2022-09-17T07:25:52;92530.84;;;19.67;100.00
10466;BME280;5280;42.600;23.556;2022-09-17T07:28:19;92514.06;;;19.58;100.00
10466;BME280;5280;42.600;23.556;2022-09-17T07:30:46;92556.22;;;20.05;100.00
10466;BME280;5280;42.600;23.556;2022-09-17T07:33:14;92498.56;;;19.82;100.00
10466;BME280;5280;42.600;23.556;2022-09-17T07:35:41;92535.84;;;20.11;100.00
10466;BME280;5280;42.600;23.556;2022-09-17T07:38:09;92561.41;;;20.41;100.00
10466;BME280;5280;42.600;23.556;2022-09-17T07:40:36;92532.25;;;20.38;100.00
10466;BME280;5280;42.600;23.556;2022-09-17T07:43:05;92551.94;;;20.58;100.00
10466;BME280;5280;42.600;23.556;2022-09-17T07:45:33;92555.72;;;20.71;100.00
10466;BME280;5280;42.600;23.556;2022-09-17T07:48:00;92553.69;;;20.86;98.14
10466;BME280;5280;42.600;23.556;2022-09-17T07:50:27;92550.19;;;20.98;95.55
10466;BME280;5280;42.600;23.556;2022-09-17T07:52:55;92539.03;;;21.08;94.05
10466;BME280;5280;42.600;23.556;2022-09-17T07:55:23;92539.09;;;21.28;93.82
10466;BME280;5280;42.600;23.556;2022-09-17T07:57:51;92461.31;;;20.93;90.23
10466;BME280;5280;42.600;23.556;2022-09-17T08:00:18;92539.94;;;21.55;87.04
10466;BME280;5280;42.600;23.556;2022-09-17T08:02:51;92537.22;;;21.55;84.74
10466;BME280;5280;42.600;23.556;2022-09-17T08:05:18;92539.09;;;21.61;86.22
10466;BME280;5280;42.600;23.556;2022-09-17T08:07:49;92535.56;;;21.73;89.12
10466;BME280;5280;42.600;23.556;2022-09-17T08:10:17;92514.25;;;21.72;87.13
10466;BME280;5280;42.600;23.556;2022-09-17T08:12:47;92532.47;;;21.76;83.35
10466;BME280;5280;42.600;23.556;2022-09-17T08:15:15;92505.16;;;21.66;85.12
10466;BME280;5280;42.600;23.556;2022-09-17T08:17:42;92471.69;;;21.56;84.92
10466;BME280;5280;42.600;23.556;2022-09-17T08:20:10;92455.09;;;21.59;84.36
10466;BME280;5280;42.600;23.556;2022-09-17T08:22:37;92517.13;;;21.90;76.69
10466;BME280;5280;42.600;23.556;2022-09-17T08:27:31;92488.16;;;21.99;81.21
10466;BME280;5280;42.600;23.556;2022-09-17T08:30:00;92478.16;;;22.12;79.30
10466;BME280;5280;42.600;23.556;2022-09-17T08:32:28;92484.94;;;22.28;80.42
10466;BME280;5280;42.600;23.556;2022-09-17T08:34:55;92487.13;;;22.51;78.17
10466;BME280;5280;42.600;23.556;2022-09-17T08:37:22;92487.03;;;22.64;76.72
10466;BME280;5280;42.600;23.556;2022-09-17T08:39:49;92491.34;;;22.78;75.61
10466;BME280;5280;42.600;23.556;2022-09-17T08:42:21;92495.78;;;22.97;74.79
10466;BME280;5280;42.600;23.556;2022-09-17T08:44:51;92504.78;;;23.16;72.72
10466;BME280;5280;42.600;23.556;2022-09-17T08:47:24;92474.84;;;22.99;72.08
10466;BME280;5280;42.600;23.556;2022-09-17T08:49:53;92486.25;;;23.26;70.93
10466;BME280;5280;42.600;23.556;2022-09-17T08:52:40;92501.00;;;23.24;70.18
10466;BME280;5280;42.600;23.556;2022-09-17T08:55:22;92503.19;;;23.33;70.58
10466;BME280;5280;42.600;23.556;2022-09-17T08:58:03;92497.44;;;23.30;69.48
10466;BME280;5280;42.600;23.556;2022-09-17T09:00:38;92489.50;;;23.35;69.47
10466;BME280;5280;42.600;23.556;2022-09-17T09:03:20;92493.69;;;23.31;66.60
10466;BME280;5280;42.600;23.556;2022-09-17T09:05:51;92478.19;;;22.95;67.24
10466;BME280;5280;42.600;23.556;2022-09-17T09:08:29;92494.81;;;23.16;69.08
10466;BME280;5280;42.600;23.556;2022-09-17T09:11:02;92435.81;;;22.77;66.85
10466;BME280;5280;42.600;23.556;2022-09-17T09:13:32;92515.41;;;23.11;67.18
10466;BME280;5280;42.600;23.556;2022-09-17T09:16:02;92524.47;;;23.16;67.14
10466;BME280;5280;42.600;23.556;2022-09-17T09:18:35;92520.88;;;22.98;68.36
10466;BME280;5280;42.600;23.556;2022-09-17T09:21:16;92515.84;;;23.01;71.14
10466;BME280;5280;42.600;23.556;2022-09-17T09:23:52;92527.44;;;23.08;74.85
10466;BME280;5280;42.600;23.556;2022-09-17T09:26:22;92521.97;;;22.90;75.71
10466;BME280;5280;42.600;23.556;2022-09-17T09:29:03;92525.69;;;22.89;80.00
10466;BME280;5280;42.600;23.556;2022-09-17T09:31:43;92525.34;;;22.79;83.01
10466;BME280;5280;42.600;23.556;2022-09-17T09:34:15;92506.81;;;22.45;86.77
10466;BME280;5280;42.600;23.556;2022-09-17T09:36:42;92518.84;;;22.42;89.18
10466;BME280;5280;42.600;23.556;2022-09-17T09:39:15;92546.00;;;22.41;93.67
10466;BME280;5280;42.600;23.556;2022-09-17T09:41:46;92564.47;;;22.30;95.83
10466;BME280;5280;42.600;23.556;2022-09-17T09:44:15;92502.88;;;21.70;96.31
10466;BME280;5280;42.600;23.556;2022-09-17T09:47:05;92494.84;;;21.50;97.41
10466;BME280;5280;42.600;23.556;2022-09-17T09:49:56;92605.72;;;22.05;99.92
10466;BME280;5280;42.600;23.556;2022-09-17T09:52:36;92549.84;;;21.54;99.07
10466;BME280;5280;42.600;23.556;2022-09-17T09:55:19;92549.84;;;21.61;100.00
10466;BME280;5280;42.600;23.556;2022-09-17T09:57:52;92581.69;;;21.57;100.00
10466;BME280;5280;42.600;23.556;2022-09-17T10:00:26;92604.03;;;21.31;100.00
10466;BME280;5280;42.600;23.556;2022-09-17T10:02:58;92588.59;;;20.92;100.00
10466;BME280;5280;42.600;23.556;2022-09-17T10:05:28;92586.09;;;20.78;100.00
10466;BME280;5280;42.600;23.556;2022-09-17T10:07:55;92599.03;;;20.54;100.00
10466;BME280;5280;42.600;23.556;2022-09-17T10:10:22;92584.97;;;20.18;100.00
10466;BME280;5280;42.600;23.556;2022-09-17T10:13:05;92576.19;;;19.96;100.00
10466;BME280;5280;42.600;23.556;2022-09-17T10:15:33;92567.38;;;19.74;100.00
10466;BME280;5280;42.600;23.556;2022-09-17T10:18:13;92574.59;;;19.74;100.00
10466;BME280;5280;42.600;23.556;2022-09-17T10:20:50;92552.91;;;19.69;100.00
10466;BME280;5280;42.600;23.556;2022-09-17T10:23:18;92539.25;;;19.64;100.00
10466;BME280;5280;42.600;23.556;2022-09-17T10:25:46;92533.06;;;19.63;100.00
10466;BME280;5280;42.600;23.556;2022-09-17T10:28:38;92517.81;;;19.57;100.00
10466;BME280;5280;42.600;23.556;2022-09-17T10:31:09;92481.56;;;19.40;100.00
10466;BME280;5280;42.600;23.556;2022-09-17T10:33:50;92441.50;;;18.98;100.00
10466;BME280;5280;42.600;23.556;2022-09-17T10:36:35;92530.63;;;19.68;100.00
10466;BME280;5280;42.600;23.556;2022-09-17T10:39:18;92519.91;;;19.68;100.00
10466;BME280;5280;42.600;23.556;2022-09-17T10:41:52;92538.00;;;19.60;100.00
10466;BME280;5280;42.600;23.556;2022-09-17T10:44:21;92538.34;;;19.50;100.00
10466;BME280;5280;42.600;23.556;2022-09-17T10:46:50;92541.69;;;19.52;100.00
10466;BME280;5280;42.600;23.556;2022-09-17T10:49:28;92507.06;;;19.57;100.00
10466;BME280;5280;42.600;23.556;2022-09-17T10:52:09;92479.81;;;19.54;100.00
10466;BME280;5280;42.600;23.556;2022-09-17T10:54:52;92431.56;;;19.47;100.00
10466;BME280;5280;42.600;23.556;2022-09-17T10:57:33;92461.34;;;19.38;100.00
10466;BME280;5280;42.600;23.556;2022-09-17T11:00:10;92459.09;;;19.41;100.00
10466;BME280;5280;42.600;23.556;2022-09-17T11:06:06;92443.56;;;19.30;100.00
10466;BME280;5280;42.600;23.556;2022-09-17T11:08:45;92450.72;;;19.23;100.00
10466;BME280;5280;42.600;23.556;2022-09-17T11:11:22;92394.75;;;18.72;100.00
10466;BME280;5280;42.600;23.556;2022-09-17T11:14:04;92424.13;;;18.87;100.00
10466;BME280;5280;42.600;23.556;2022-09-17T11:16:39;92443.63;;;18.81;100.00
10466;BME280;5280;42.600;23.556;2022-09-17T11:19:15;92467.19;;;18.92;100.00
10466;BME280;5280;42.600;23.556;2022-09-17T11:21:51;92440.75;;;18.82;100.00
10466;BME280;5280;42.600;23.556;2022-09-17T11:24:48;92423.88;;;18.82;100.00
10466;BME280;5280;42.600;23.556;2022-09-17T11:27:45;92401.75;;;18.73;100.00
10466;BME280;5280;42.600;23.556;2022-09-17T11:30:18;92411.09;;;18.56;100.00
10466;BME280;5280;42.600;23.556;2022-09-17T11:33:04;92386.72;;;18.51;100.00
10466;BME280;5280;42.600;23.556;2022-09-17T11:35:40;92407.13;;;18.52;100.00
10466;BME280;5280;42.600;23.556;2022-09-17T11:38:16;92409.78;;;18.52;100.00
10466;BME280;5280;42.600;23.556;2022-09-17T11:40:51;92417.00;;;18.52;100.00
10466;BME280;5280;42.600;23.556;2022-09-17T11:43:25;92430.38;;;18.52;100.00
10466;BME280;5280;42.600;23.556;2022-09-17T11:46:00;92436.91;;;18.49;100.00
10466;BME280;5280;42.600;23.556;2022-09-17T11:48:34;92449.38;;;18.57;100.00
10466;BME280;5280;42.600;23.556;2022-09-17T11:51:09;92449.75;;;18.54;100.00
10466;BME280;5280;42.600;23.556;2022-09-17T11:53:40;92461.28;;;18.54;100.00
10466;BME280;5280;42.600;23.556;2022-09-17T11:56:17;92454.75;;;18.57;100.00
10466;BME280;5280;42.600;23.556;2022-09-17T11:58:47;92445.16;;;18.47;100.00
10466;BME280;5280;42.600;23.556;2022-09-17T12:01:24;92426.69;;;18.53;100.00
10466;BME280;5280;42.600;23.556;2022-09-17T12:03:57;92430.22;;;18.38;100.00
10466;BME280;5280;42.600;23.556;2022-09-17T12:06:32;92435.25;;;18.48;100.00
10466;BME280;5280;42.600;23.556;2022-09-17T12:09:04;92434.06;;;18.50;100.00
10466;BME280;5280;42.600;23.556;2022-09-17T12:11:42;92417.19;;;18.50;100.00
10466;BME280;5280;42.600;23.556;2022-09-17T12:14:19;92389.56;;;18.22;100.00
10466;BME280;5280;42.600;23.556;2022-09-17T12:16:49;92432.09;;;18.59;100.00
10466;BME280;5280;42.600;23.556;2022-09-17T12:19:21;92429.94;;;18.69;100.00
10466;BME280;5280;42.600;23.556;2022-09-17T12:21:53;92382.28;;;18.37;100.00
10466;BME280;5280;42.600;23.556;2022-09-17T12:24:23;92427.38;;;18.82;100.00
10466;BME280;5280;42.600;23.556;2022-09-17T12:27:03;92413.84;;;18.90;100.00
10466;BME280;5280;42.600;23.556;2022-09-17T12:32:39;92425.03;;;19.01;100.00
10466;BME280;5280;42.600;23.556;2022-09-17T12:35:19;92398.19;;;18.87;100.00
10466;BME280;5280;42.600;23.556;2022-09-17T12:38:06;92370.50;;;18.80;100.00
10466;BME280;5280;42.600;23.556;2022-09-17T12:40:42;92409.50;;;19.17;100.00
10466;BME280;5280;42.600;23.556;2022-09-17T12:43:28;92408.66;;;19.17;100.00
10466;BME280;5280;42.600;23.556;2022-09-17T12:46:10;92405.69;;;19.05;100.00
10466;BME280;5280;42.600;23.556;2022-09-17T12:48:58;92393.19;;;18.84;100.00
10466;BME280;5280;42.600;23.556;2022-09-17T12:51:52;92379.88;;;18.91;98.74
10466;BME280;5280;42.600;23.556;2022-09-17T12:57:24;92375.59;;;19.03;94.29
10466;BME280;5280;42.600;23.556;2022-09-17T12:59:58;92392.06;;;19.00;98.06
10466;BME280;5280;42.600;23.556;2022-09-17T13:02:31;92423.09;;;19.16;100.00
10466;BME280;5280;42.600;23.556;2022-09-17T13:05:34;92406.22;;;19.22;100.00
10466;BME280;5280;42.600;23.556;2022-09-17T13:08:14;92403.38;;;19.30;100.00
10466;BME280;5280;42.600;23.556;2022-09-17T13:11:10;92400.94;;;19.35;100.00
10466;BME280;5280;42.600;23.556;2022-09-17T13:13:47;92397.25;;;19.36;100.00
10466;BME280;5280;42.600;23.556;2022-09-17T13:16:20;92422.38;;;19.35;100.00
10466;BME280;5280;42.600;23.556;2022-09-17T13:18:55;92410.44;;;19.38;100.00
10466;BME280;5280;42.600;23.556;2022-09-17T13:21:31;92392.72;;;19.43;100.00
10466;BME280;5280;42.600;23.556;2022-09-17T13:24:00;92392.44;;;19.59;100.00
10466;BME280;5280;42.600;23.556;2022-09-17T13:26:37;92400.75;;;19.77;100.00
10466;BME280;5280;42.600;23.556;2022-09-17T13:29:05;92404.94;;;19.87;100.00
10466;BME280;5280;42.600;23.556;2022-09-17T13:31:48;92381.41;;;19.89;100.00
10466;BME280;5280;42.600;23.556;2022-09-17T13:34:30;92391.34;;;19.95;96.08
10466;BME280;5280;42.600;23.556;2022-09-17T13:37:01;92322.34;;;19.62;94.38